Stanton, New Jersey
Current Conditions -  °F | °C
As of 8:53 PM on Wednesday 26 Nov 2014 (Local Time) from KSMQ Reporting Station
Overcast Overcast  
Wind Chill: 30°   Ceiling: 4400
Heat Index: 37°   Visibility: 10mi
Dew Point: 31°   Wind: 10mph
Humidity: 79%   Direction: 340°NNW
Pressure: 29.82"   Gusts: 20mph
Location:  40.57°N, 74.84°W
Report Text: KSMQ 270153Z AUTO 34009G17KT 10SM OVC044 03/M01 A2982 RMK AO2 RAE13B19E29UPB13E19 SLP100 P0006 T00281006
Loading
Personal Weather Stations






























Interactive Weather Map New forecast layout! Learn more

10-Day Weather Forecast

Advertisements
Track Severe Weather on mobile